Time;durP1;ratioP1;P1;durP2;ratioP2;P2;SDS_P1;SDS_P2;PMS_P1;PMS_P2;Temp;Humidity;BMP_temperature;BMP_pressure;BME280_temperature;BME280_humidity;BME280_pressure;Samples;Min_cycle;Max_cycle;Signal;HPM_P1;HPM_P2
2023/07/13 00:01:31;;;;;;;0.10;0.10;;;15.10;99.90;;;;;;5087521;22;20503;-96
2023/07/13 00:06:25;;;;;;;0.10;0.10;;;15.20;99.90;;;;;;5045340;28;20489;-96
2023/07/13 00:08:52;;;;;;;0.10;0.10;;;15.20;99.90;;;;;;5048359;28;20430;-96
2023/07/13 00:11:18;;;;;;;0.10;0.10;;;15.10;99.90;;;;;;5045306;28;20453;-96
2023/07/13 00:13:44;;;;;;;0.10;0.10;;;15.10;99.90;;;;;;5040695;28;20469;-96
2023/07/13 00:16:11;;;;;;;0.10;0.10;;;15.10;99.90;;;;;;5030182;28;20203;-96
2023/07/13 00:18:37;;;;;;;0.10;0.10;;;15.00;99.90;;;;;;5038377;28;20183;-96
2023/07/13 00:21:06;;;;;;;0.10;0.10;;;14.90;99.90;;;;;;5034540;28;20433;-96
2023/07/13 00:23:34;;;;;;;0.10;0.10;;;14.80;99.90;;;;;;5033765;28;20507;-96
2023/07/13 00:26:09;;;;;;;0.10;0.10;;;14.90;99.90;;;;;;5029171;28;20447;-96
2023/07/13 00:28:35;;;;;;;0.10;0.10;;;14.90;99.90;;;;;;5049953;28;20480;-96
2023/07/13 00:31:02;;;;;;;0.10;0.10;;;14.80;99.90;;;;;;5038344;28;20576;-96
2023/07/13 00:33:28;;;;;;;0.10;0.10;;;14.90;99.90;;;;;;5052702;28;20450;-96
2023/07/13 00:35:55;;;;;;;0.10;0.10;;;15.00;99.90;;;;;;5064222;28;20457;-96
2023/07/13 00:38:21;;;;;;;0.10;0.10;;;15.00;99.90;;;;;;5067485;28;20477;-96
2023/07/13 00:40:47;;;;;;;0.10;0.10;;;15.00;99.90;;;;;;5045457;28;21083;-96
2023/07/13 00:48:19;;;;;;;0.10;0.10;;;15.00;99.90;;;;;;5046023;28;20512;-96
2023/07/13 00:50:49;;;;;;;0.10;0.10;;;15.10;99.90;;;;;;5029444;28;20498;-91
2023/07/13 00:53:15;;;;;;;0.10;0.10;;;15.10;99.90;;;;;;5037151;28;20545;-96
2023/07/13 00:55:41;;;;;;;0.10;0.10;;;15.10;99.90;;;;;;5063312;22;20472;-96
2023/07/13 00:58:06;;;;;;;0.10;0.10;;;15.00;99.90;;;;;;5061646;28;20201;-96
2023/07/13 01:00:36;;;;;;;0.10;0.10;;;14.90;99.90;;;;;;5056243;28;20171;-96
2023/07/13 01:03:04;;;;;;;0.10;0.10;;;14.90;99.90;;;;;;5047822;28;20725;-96
2023/07/13 01:05:31;;;;;;;0.10;0.10;;;14.80;99.90;;;;;;5064791;28;20448;-96
2023/07/13 01:07:58;;;;;;;0.10;0.10;;;14.80;99.90;;;;;;5057017;28;20838;-96
2023/07/13 01:10:25;;;;;;;0.10;0.10;;;14.80;99.90;;;;;;5046265;28;20442;-96
2023/07/13 01:12:51;;;;;;;0.10;0.10;;;14.80;99.90;;;;;;5061243;28;20491;-96
2023/07/13 01:15:41;;;;;;;0.10;0.10;;;14.80;99.90;;;;;;5052213;28;20473;-96
2023/07/13 01:18:20;;;;;;;0.10;0.10;;;14.70;99.90;;;;;;5034196;28;20456;-96
2023/07/13 01:21:03;;;;;;;0.10;0.10;;;14.70;99.90;;;;;;5067040;28;20444;-96
2023/07/13 01:23:30;;;;;;;0.10;0.10;;;14.80;99.90;;;;;;5061488;28;20424;-96
2023/07/13 01:25:57;;;;;;;0.10;0.10;;;14.70;99.90;;;;;;5071031;28;20455;-96
2023/07/13 01:28:26;;;;;;;0.10;0.10;;;14.70;99.90;;;;;;5071251;28;20441;-96
2023/07/13 01:30:53;;;;;;;0.10;0.10;;;14.80;99.90;;;;;;5060123;28;20445;-96
2023/07/13 01:35:47;;;;;;;0.10;0.10;;;14.80;99.90;;;;;;5063864;28;20457;-96
2023/07/13 01:38:17;;;;;;;0.10;0.10;;;14.80;99.90;;;;;;5110168;22;20450;-96
2023/07/13 01:40:43;;;;;;;0.10;0.10;;;14.80;99.90;;;;;;5048426;28;20430;-96
2023/07/13 01:43:09;;;;;;;0.10;0.10;;;14.70;99.90;;;;;;5028108;28;20494;-97
2023/07/13 01:45:34;;;;;;;0.10;0.10;;;14.80;99.90;;;;;;5032113;28;20470;-96
2023/07/13 01:48:00;;;;;;;0.10;0.10;;;14.80;99.90;;;;;;5055061;23;20513;-96
2023/07/13 01:50:26;;;;;;;0.10;0.10;;;14.70;99.90;;;;;;5066501;23;20247;-96
2023/07/13 01:52:52;;;;;;;0.10;0.10;;;14.60;99.90;;;;;;5088449;23;20467;-96
2023/07/13 01:55:18;;;;;;;0.10;0.10;;;14.70;99.90;;;;;;5097448;28;20190;-96
2023/07/13 01:57:44;;;;;;;0.10;0.10;;;14.70;99.90;;;;;;5148262;22;20491;-96
2023/07/13 02:00:11;;;;;;;0.10;0.10;;;14.60;99.90;;;;;;5096051;28;20463;-92
2023/07/13 02:02:36;;;;;;;0.10;0.10;;;14.60;99.90;;;;;;5088189;28;20190;-96
2023/07/13 02:05:02;;;;;;;0.10;0.10;;;14.60;99.90;;;;;;5089590;28;20448;-96
2023/07/13 02:09:54;;;;;;;0.10;0.10;;;14.60;99.90;;;;;;5128605;22;20221;-96
2023/07/13 02:12:20;;;;;;;0.10;0.10;;;14.60;99.90;;;;;;5112988;22;20514;-96
2023/07/13 02:14:45;;;;;;;0.10;0.10;;;14.60;99.90;;;;;;5056123;28;20186;-96
2023/07/13 02:17:13;;;;;;;0.10;0.10;;;14.50;99.90;;;;;;5061290;28;20302;-89
2023/07/13 02:19:38;;;;;;;0.10;0.10;;;14.60;99.90;;;;;;5062238;28;20175;-96
2023/07/13 02:22:04;;;;;;;0.10;0.10;;;14.50;99.90;;;;;;5068995;28;20433;-96
2023/07/13 02:24:30;;;;;;;0.10;0.10;;;14.50;99.90;;;;;;5034180;28;20338;-96
2023/07/13 02:26:55;;;;;;;0.10;0.10;;;14.40;99.90;;;;;;5056706;28;20201;-96
2023/07/13 02:29:21;;;;;;;0.10;0.10;;;14.50;99.90;;;;;;5101219;23;20719;-96
2023/07/13 02:31:46;;;;;;;0.10;0.10;;;14.40;99.90;;;;;;5106856;28;20201;-96
2023/07/13 02:34:12;;;;;;;0.10;0.10;;;14.40;99.90;;;;;;5108621;22;20234;-96
2023/07/13 02:36:38;;;;;;;0.10;0.10;;;14.50;99.90;;;;;;5096540;23;20245;-96
2023/07/13 02:39:06;;;;;;;0.10;0.10;;;14.50;99.90;;;;;;5107615;28;20423;-89
2023/07/13 02:41:32;;;;;;;0.10;0.10;;;14.40;99.90;;;;;;5092132;28;20277;-96
2023/07/13 02:44:03;;;;;;;0.10;0.10;;;14.40;99.90;;;;;;5104500;28;20786;-96
2023/07/13 02:46:30;;;;;;;0.10;0.10;;;14.40;99.90;;;;;;5109122;28;20192;-96
2023/07/13 02:48:55;;;;;;;0.10;0.10;;;14.40;99.90;;;;;;5109400;28;20446;-96
2023/07/13 02:51:21;;;;;;;0.10;0.10;;;14.50;99.90;;;;;;5107139;28;20459;-89
2023/07/13 02:53:47;;;;;;;0.10;0.10;;;14.40;99.90;;;;;;5090555;28;20235;-96
2023/07/13 02:56:12;;;;;;;0.10;0.10;;;14.40;99.90;;;;;;5089750;28;20198;-96
2023/07/13 02:58:38;;;;;;;0.10;0.10;;;14.40;99.90;;;;;;5078065;28;20660;-96
2023/07/13 03:01:09;;;;;;;0.10;0.10;;;14.40;99.90;;;;;;5085890;28;20166;-96
2023/07/13 03:03:34;;;;;;;0.10;0.10;;;14.40;99.90;;;;;;5150528;22;20473;-96
2023/07/13 03:06:03;;;;;;;0.10;0.10;;;14.40;99.90;;;;;;5053325;28;20469;-96
2023/07/13 03:08:29;;;;;;;0.10;0.10;;;14.40;99.90;;;;;;5058958;28;20163;-90
2023/07/13 03:11:03;;;;;;;0.10;0.10;;;14.40;99.90;;;;;;5045328;28;20451;-96
2023/07/13 03:13:28;;;;;;;0.10;0.10;;;14.40;99.90;;;;;;5098318;22;20561;-96
2023/07/13 03:15:54;;;;;;;0.10;0.10;;;14.40;99.90;;;;;;5039160;28;20482;-96
2023/07/13 03:18:19;;;;;;;0.10;0.10;;;14.30;99.90;;;;;;5050523;28;20209;-94
2023/07/13 03:20:45;;;;;;;0.10;0.10;;;14.40;99.90;;;;;;5070932;28;20206;-90
2023/07/13 03:28:16;;;;;;;0.10;0.10;;;14.30;99.90;;;;;;5173072;22;20506;-96
2023/07/13 03:30:42;;;;;;;0.10;0.10;;;14.30;99.90;;;;;;5049320;28;20479;-97
2023/07/13 03:35:40;;;;;;;0.10;0.10;;;14.40;99.90;;;;;;5061545;22;20239;-96
2023/07/13 03:38:06;;;;;;;0.10;0.10;;;14.40;99.90;;;;;;5063475;23;20492;-96
2023/07/13 03:40:31;;;;;;;0.10;0.10;;;14.40;99.90;;;;;;5091921;22;20550;-96
2023/07/13 03:42:57;;;;;;;0.10;0.10;;;14.40;99.90;;;;;;5106904;28;20189;-96
2023/07/13 03:45:22;;;;;;;0.10;0.10;;;14.40;99.90;;;;;;5102495;22;20229;-94
2023/07/13 03:47:48;;;;;;;0.10;0.10;;;14.40;99.90;;;;;;5087819;22;20265;-96
2023/07/13 03:50:13;;;;;;;0.20;0.20;;;14.50;99.90;;;;;;5119748;28;20284;-96
2023/07/13 03:52:39;;;;;;;0.10;0.10;;;14.50;99.90;;;;;;5166298;22;20230;-96
2023/07/13 03:55:06;;;;;;;0.10;0.10;;;14.50;99.90;;;;;;5066132;28;20190;-96
2023/07/13 03:57:31;;;;;;;0.10;0.10;;;14.50;99.90;;;;;;5093505;23;20239;-97
2023/07/13 03:59:57;;;;;;;0.10;0.10;;;14.50;99.90;;;;;;5074761;28;20508;-96
2023/07/13 04:02:22;;;;;;;0.10;0.10;;;14.50;99.90;;;;;;5139352;22;20283;-96
2023/07/13 04:04:48;;;;;;;0.10;0.10;;;14.50;99.90;;;;;;5125220;28;20196;-94
2023/07/13 04:07:13;;;;;;;0.10;0.10;;;14.50;99.90;;;;;;5124432;28;20168;-96
2023/07/13 04:09:39;;;;;;;0.10;0.10;;;14.50;99.90;;;;;;5118785;28;20187;-96
2023/07/13 04:12:05;;;;;;;0.10;0.10;;;14.50;99.90;;;;;;5117829;22;20262;-96
2023/07/13 04:14:31;;;;;;;0.10;0.10;;;14.60;99.90;;;;;;5069401;28;20178;-96
2023/07/13 04:16:57;;;;;;;0.10;0.10;;;14.60;99.90;;;;;;5060148;28;20995;-96
2023/07/13 04:19:23;;;;;;;0.10;0.10;;;14.70;99.90;;;;;;5098554;23;20223;-96
2023/07/13 04:21:49;;;;;;;0.10;0.10;;;14.70;99.90;;;;;;5050307;28;20432;-96
2023/07/13 04:24:14;;;;;;;0.10;0.10;;;14.70;99.90;;;;;;5035948;28;20549;-95
2023/07/13 04:26:40;;;;;;;0.10;0.10;;;14.70;99.90;;;;;;5022726;28;20247;-96
2023/07/13 04:29:07;;;;;;;0.10;0.10;;;14.80;99.90;;;;;;5044913;28;20195;-96
2023/07/13 04:31:33;;;;;;;0.10;0.10;;;14.80;99.90;;;;;;5092970;23;20240;-96
2023/07/13 04:33:59;;;;;;;0.10;0.10;;;14.80;99.90;;;;;;5115320;28;20521;-96
2023/07/13 04:36:26;;;;;;;0.10;0.10;;;14.90;99.90;;;;;;5101673;28;20517;-96
2023/07/13 04:38:53;;;;;;;0.10;0.10;;;14.90;99.90;;;;;;5119209;28;20171;-96
2023/07/13 04:41:20;;;;;;;0.10;0.10;;;14.90;99.90;;;;;;5120509;27;20441;-96
2023/07/13 04:43:46;;;;;;;0.10;0.10;;;14.90;99.90;;;;;;5115628;28;20463;-96
2023/07/13 04:46:14;;;;;;;0.10;0.10;;;14.90;99.90;;;;;;5112128;28;20434;-96
2023/07/13 04:48:39;;;;;;;0.10;0.10;;;15.00;99.90;;;;;;5115443;28;20184;-96
2023/07/13 04:53:32;;;;;;;0.10;0.10;;;15.10;99.90;;;;;;5153876;22;20362;-96
2023/07/13 04:55:58;;;;;;;0.10;0.10;;;15.20;99.90;;;;;;5102987;28;20190;-96
2023/07/13 04:58:24;;;;;;;0.10;0.10;;;15.30;99.90;;;;;;5087576;28;20495;-97
2023/07/13 05:00:50;;;;;;;0.10;0.10;;;15.40;99.90;;;;;;5095266;28;20446;-96
2023/07/13 05:03:16;;;;;;;0.10;0.10;;;15.50;99.90;;;;;;5090625;28;20427;-96
2023/07/13 05:05:41;;;;;;;0.10;0.10;;;15.60;99.90;;;;;;5089652;28;20188;-96
2023/07/13 05:08:07;;;;;;;0.10;0.10;;;15.70;99.90;;;;;;5098979;28;20181;-96
2023/07/13 05:10:33;;;;;;;0.10;0.10;;;15.80;99.90;;;;;;5082371;28;20182;-96
2023/07/13 05:12:59;;;;;;;0.10;0.10;;;15.90;99.90;;;;;;5093020;28;20204;-96
2023/07/13 05:15:25;;;;;;;0.10;0.10;;;15.70;99.90;;;;;;5100618;28;20454;-96
2023/07/13 05:17:51;;;;;;;0.10;0.10;;;15.90;99.90;;;;;;5107067;28;20197;-96
2023/07/13 05:20:17;;;;;;;0.10;0.10;;;16.00;99.90;;;;;;5104268;28;20503;-96
2023/07/13 05:22:43;;;;;;;0.10;0.10;;;16.00;99.90;;;;;;5102938;28;20197;-96
2023/07/13 05:25:09;;;;;;;0.10;0.10;;;16.10;99.90;;;;;;5099348;28;20418;-96
2023/07/13 05:27:35;;;;;;;0.10;0.10;;;16.00;99.90;;;;;;5092017;28;20193;-94
2023/07/13 05:30:03;;;;;;;0.10;0.10;;;16.00;99.90;;;;;;5088169;28;20443;-94
2023/07/13 05:32:28;;;;;;;0.10;0.10;;;16.10;99.90;;;;;;5088092;28;20496;-94
2023/07/13 05:34:54;;;;;;;0.10;0.10;;;16.00;99.90;;;;;;5092516;28;20832;-96
2023/07/13 05:37:19;;;;;;;0.10;0.10;;;16.10;99.90;;;;;;5095450;28;20634;-96
2023/07/13 05:39:45;;;;;;;0.10;0.10;;;16.10;99.90;;;;;;5093467;22;20227;-94
2023/07/13 05:42:10;;;;;;;0.10;0.10;;;16.00;99.90;;;;;;5070006;28;20197;-96
2023/07/13 05:44:36;;;;;;;0.10;0.10;;;16.00;99.90;;;;;;5109861;22;20628;-96
2023/07/13 05:47:01;;;;;;;0.10;0.10;;;16.00;99.90;;;;;;5123816;28;20172;-97
2023/07/13 05:49:27;;;;;;;0.10;0.10;;;16.10;99.90;;;;;;5121936;28;20886;-96
2023/07/13 05:51:53;;;;;;;0.10;0.10;;;16.10;99.90;;;;;;5102826;28;20181;-96
2023/07/13 05:54:18;;;;;;;0.10;0.10;;;16.10;99.90;;;;;;5089189;28;20182;-96
2023/07/13 05:56:44;;;;;;;0.10;0.10;;;16.30;99.90;;;;;;5091873;28;20204;-96
2023/07/13 05:59:09;;;;;;;0.10;0.10;;;16.20;99.90;;;;;;5123278;28;20229;-96
2023/07/13 06:01:35;;;;;;;0.10;0.10;;;16.20;99.90;;;;;;5119023;28;20193;-96
2023/07/13 06:06:29;;;;;;;0.10;0.10;;;16.30;99.90;;;;;;5162727;22;20247;-95
2023/07/13 06:08:55;;;;;;;0.10;0.10;;;16.40;99.90;;;;;;5131255;28;20478;-96
2023/07/13 06:11:23;;;;;;;0.10;0.10;;;16.50;99.90;;;;;;5126862;22;20229;-95
2023/07/13 06:13:50;;;;;;;0.10;0.10;;;16.60;99.90;;;;;;5051956;28;20249;-96
2023/07/13 06:16:16;;;;;;;0.10;0.10;;;16.70;99.90;;;;;;5036479;28;20461;-96
2023/07/13 06:18:42;;;;;;;0.10;0.10;;;16.50;99.90;;;;;;5068312;28;20928;-96
2023/07/13 06:23:36;;;;;;;0.10;0.10;;;16.60;99.90;;;;;;5116443;23;20497;-95
2023/07/13 06:26:02;;;;;;;0.10;0.10;;;16.80;99.90;;;;;;5115667;28;20441;-96
2023/07/13 06:28:29;;;;;;;0.10;0.10;;;16.70;99.90;;;;;;5173398;22;20524;-96
2023/07/13 06:30:55;;;;;;;0.10;0.10;;;16.80;99.90;;;;;;5100448;28;20450;-96
2023/07/13 06:33:20;;;;;;;0.10;0.10;;;16.80;99.90;;;;;;5092180;28;20451;-96
2023/07/13 06:35:46;;;;;;;0.10;0.10;;;17.00;99.90;;;;;;5104806;28;20260;-96
2023/07/13 06:38:11;;;;;;;0.10;0.10;;;17.00;99.90;;;;;;5132659;28;20197;-90
2023/07/13 06:40:37;;;;;;;0.10;0.10;;;17.10;99.90;;;;;;5120148;28;20188;-96
2023/07/13 06:43:02;;;;;;;0.10;0.10;;;17.10;99.90;;;;;;5180370;22;20246;-95
2023/07/13 06:45:28;;;;;;;0.10;0.10;;;17.00;99.90;;;;;;5054880;28;20221;-95
2023/07/13 06:47:53;;;;;;;0.10;0.10;;;17.00;99.90;;;;;;5052426;28;20210;-96
2023/07/13 06:50:19;;;;;;;0.10;0.10;;;17.00;99.90;;;;;;5055630;28;20187;-95
2023/07/13 06:52:44;;;;;;;0.10;0.10;;;16.90;99.90;;;;;;5026618;28;20252;-95
2023/07/13 06:55:10;;;;;;;0.10;0.10;;;17.10;99.90;;;;;;5051335;28;21050;-96
2023/07/13 06:57:35;;;;;;;0.10;0.10;;;17.20;99.90;;;;;;5044575;28;20223;-94
2023/07/13 07:00:01;;;;;;;0.10;0.10;;;17.20;99.90;;;;;;5057191;28;20183;-96
2023/07/13 07:02:26;;;;;;;0.10;0.10;;;17.20;99.90;;;;;;5060172;28;20201;-96
2023/07/13 07:04:54;;;;;;;0.00;0.00;;;17.20;99.90;;;;;;5047339;28;20222;-96
2023/07/13 07:07:19;;;;;;;0.00;0.00;;;17.40;99.90;;;;;;5060235;28;20229;-96
2023/07/13 07:09:45;;;;;;;0.00;0.00;;;17.40;99.90;;;;;;5053139;28;20925;-95
2023/07/13 07:12:10;;;;;;;0.00;0.00;;;17.50;99.90;;;;;;5049683;28;20286;-96
2023/07/13 07:14:36;;;;;;;0.00;0.00;;;17.60;99.90;;;;;;5027748;28;20186;-96
2023/07/13 07:17:01;;;;;;;0.10;0.00;;;17.90;99.90;;;;;;5062988;28;20226;-94
2023/07/13 07:19:30;;;;;;;0.10;0.10;;;17.90;99.90;;;;;;5061032;28;20189;-96
2023/07/13 07:21:56;;;;;;;0.10;0.10;;;18.20;99.90;;;;;;5066819;28;20187;-96
2023/07/13 07:24:21;;;;;;;0.10;0.10;;;17.90;99.90;;;;;;5043605;28;20448;-96
2023/07/13 07:26:47;;;;;;;0.10;0.10;;;18.20;99.90;;;;;;5073440;28;20234;-91
2023/07/13 07:29:12;;;;;;;0.10;0.10;;;18.30;99.90;;;;;;5066470;28;20183;-96
2023/07/13 07:31:38;;;;;;;0.10;0.10;;;18.80;99.90;;;;;;5231723;23;20616;-96
2023/07/13 07:34:03;;;;;;;0.10;0.10;;;19.00;99.90;;;;;;5099253;28;20273;-96
2023/07/13 07:36:29;;;;;;;0.10;0.10;;;19.10;99.90;;;;;;5111518;28;20249;-96
2023/07/13 07:38:54;;;;;;;0.10;0.10;;;19.00;99.90;;;;;;5113485;28;20170;-96
2023/07/13 07:41:20;;;;;;;0.10;0.10;;;18.80;99.90;;;;;;5119705;28;20196;-94
2023/07/13 07:43:45;;;;;;;0.10;0.10;;;18.80;99.90;;;;;;5099120;28;20275;-95
2023/07/13 07:46:11;;;;;;;0.10;0.10;;;19.00;99.90;;;;;;5111086;28;20199;-95
2023/07/13 07:48:36;;;;;;;0.10;0.10;;;19.20;99.90;;;;;;5112485;28;20509;-94
2023/07/13 07:51:02;;;;;;;0.10;0.10;;;19.40;99.90;;;;;;5116892;28;20179;-96
2023/07/13 07:53:27;;;;;;;0.10;0.10;;;19.60;99.90;;;;;;5118755;28;20762;-96
2023/07/13 07:55:53;;;;;;;0.10;0.10;;;20.10;99.90;;;;;;5119101;28;20250;-92
2023/07/13 07:58:18;;;;;;;0.10;0.10;;;20.30;99.90;;;;;;5113271;28;20747;-96
2023/07/13 08:00:44;;;;;;;0.10;0.10;;;20.30;99.90;;;;;;5111483;28;20188;-96
2023/07/13 08:03:10;;;;;;;0.10;0.07;;;19.90;99.90;;;;;;5109435;28;20186;-96
2023/07/13 08:05:36;;;;;;;0.10;0.10;;;19.60;99.90;;;;;;5116573;28;20181;-96
2023/07/13 08:08:02;;;;;;;0.10;0.10;;;19.30;99.90;;;;;;5136308;23;20239;-96
2023/07/13 08:10:28;;;;;;;0.10;0.10;;;19.00;99.90;;;;;;5105706;28;20798;-96
2023/07/13 08:12:54;;;;;;;0.10;0.10;;;18.50;99.90;;;;;;5071245;22;20502;-96
2023/07/13 08:15:20;;;;;;;0.10;0.10;;;18.30;99.90;;;;;;5188237;22;20231;-97
2023/07/13 08:17:47;;;;;;;0.10;0.10;;;18.30;99.90;;;;;;5153942;22;20330;-96
2023/07/13 08:20:13;;;;;;;0.10;0.10;;;18.10;99.90;;;;;;5113027;28;20423;-95
2023/07/13 08:22:39;;;;;;;0.10;0.10;;;18.00;99.90;;;;;;5116480;28;20441;-96
2023/07/13 08:25:05;;;;;;;0.10;0.10;;;18.00;99.90;;;;;;5118786;28;20446;-96
2023/07/13 08:27:30;;;;;;;0.10;0.10;;;17.80;99.90;;;;;;5106993;28;20181;-96
2023/07/13 08:29:56;;;;;;;0.10;0.10;;;17.90;99.90;;;;;;5097305;28;20185;-96
2023/07/13 08:32:23;;;;;;;0.10;0.10;;;17.90;99.90;;;;;;5081277;28;20703;-94
2023/07/13 08:34:49;;;;;;;0.10;0.10;;;17.90;99.90;;;;;;5111023;28;20682;-96
2023/07/13 08:37:15;;;;;;;0.10;0.10;;;18.00;99.90;;;;;;5116210;28;20482;-96
2023/07/13 08:39:41;;;;;;;0.10;0.10;;;18.30;99.90;;;;;;5117729;28;20962;-96
2023/07/13 08:42:30;;;;;;;0.10;0.10;;;18.60;99.90;;;;;;5097535;28;20434;-96
2023/07/13 08:45:20;;;;;;;0.10;0.10;;;18.80;99.90;;;;;;5104263;28;20644;-95
2023/07/13 08:48:11;;;;;;;0.10;0.10;;;18.80;99.90;;;;;;5108004;28;20430;-96
2023/07/13 08:51:01;;;;;;;0.10;0.10;;;18.50;99.90;;;;;;5097063;28;20921;-96
2023/07/13 08:53:43;;;;;;;0.10;0.10;;;18.20;99.90;;;;;;5099582;23;20491;-96
2023/07/13 08:56:15;;;;;;;0.10;0.10;;;17.40;99.90;;;;;;5083858;28;20490;-94
2023/07/13 08:58:42;;;;;;;0.10;0.10;;;16.60;99.90;;;;;;5059953;28;20808;-87
2023/07/13 09:01:38;;;;;;;0.10;0.10;;;16.00;99.90;;;;;;5063904;28;23046;-90
2023/07/13 09:04:16;;;;;;;0.10;0.10;;;15.60;99.90;;;;;;5053633;28;20437;-87
2023/07/13 09:06:54;;;;;;;0.10;0.10;;;15.70;99.90;;;;;;5051972;28;20453;-85
2023/07/13 09:09:41;;;;;;;0.10;0.10;;;15.50;99.90;;;;;;5060604;28;20437;-86
2023/07/13 09:12:28;;;;;;;0.10;0.10;;;15.50;99.90;;;;;;5069064;28;20440;-87
2023/07/13 09:14:57;;;;;;;0.10;0.10;;;15.70;99.90;;;;;;5063789;28;20439;-86
2023/07/13 09:17:29;;;;;;;0.10;0.10;;;16.00;99.90;;;;;;5053987;28;20493;-88
2023/07/13 09:20:16;;;;;;;0.10;0.10;;;16.70;99.90;;;;;;5061526;28;20451;-88
2023/07/13 09:22:42;;;;;;;0.10;0.10;;;17.40;99.90;;;;;;5055106;28;20439;-89
2023/07/13 09:25:26;;;;;;;0.10;0.10;;;18.10;99.90;;;;;;5068171;28;20443;-88
2023/07/13 09:27:55;;;;;;;0.10;0.10;;;18.30;99.90;;;;;;5054674;28;20190;-87
2023/07/13 09:30:27;;;;;;;0.10;0.10;;;18.60;99.90;;;;;;5062175;28;20448;-87
2023/07/13 09:32:53;;;;;;;0.10;0.10;;;19.20;99.90;;;;;;5088361;28;20486;-86
2023/07/13 09:35:22;;;;;;;0.10;0.10;;;19.50;99.90;;;;;;5052994;28;20437;-86
2023/07/13 09:37:48;;;;;;;0.10;0.10;;;19.80;99.90;;;;;;5070988;28;20479;-86
2023/07/13 09:40:25;;;;;;;0.10;0.10;;;20.30;99.90;;;;;;5057846;28;20445;-87
2023/07/13 09:42:53;;;;;;;0.10;0.10;;;20.20;99.90;;;;;;5056557;28;20439;-87
2023/07/13 09:45:29;;;;;;;0.10;0.10;;;20.30;99.90;;;;;;5072614;28;20547;-87
2023/07/13 09:48:08;;;;;;;0.10;0.10;;;20.40;99.90;;;;;;5061714;28;20447;-86
2023/07/13 09:50:34;;;;;;;0.10;0.10;;;20.60;99.90;;;;;;5059206;28;20459;-86
2023/07/13 09:53:01;;;;;;;0.10;0.10;;;20.40;99.90;;;;;;5068860;28;20487;-87
2023/07/13 09:55:38;;;;;;;0.10;0.00;;;20.50;99.90;;;;;;5087617;28;20557;-86
2023/07/13 09:58:13;;;;;;;0.10;0.10;;;20.70;99.90;;;;;;5088672;28;20840;-87
2023/07/13 10:00:40;;;;;;;0.10;0.00;;;21.30;99.90;;;;;;5086232;28;20468;-86
2023/07/13 10:03:23;;;;;;;0.10;0.00;;;21.40;99.90;;;;;;5088832;28;20439;-86
2023/07/13 10:05:50;;;;;;;0.10;0.00;;;21.70;99.90;;;;;;5087113;28;20453;-85
2023/07/13 10:08:21;;;;;;;0.10;0.00;;;20.70;99.90;;;;;;5113550;28;20473;-86
2023/07/13 10:10:55;;;;;;;0.10;0.10;;;20.10;99.90;;;;;;5087724;28;20792;-86
2023/07/13 10:13:36;;;;;;;0.10;0.10;;;19.20;99.90;;;;;;5083034;28;20458;-87
2023/07/13 10:16:05;;;;;;;0.10;0.10;;;18.70;99.90;;;;;;5062421;28;20944;-88
2023/07/13 10:18:36;;;;;;;0.10;0.10;;;18.60;99.90;;;;;;5081235;28;20478;-88
2023/07/13 10:21:15;;;;;;;0.10;0.10;;;19.00;99.90;;;;;;5074420;28;21018;-85
2023/07/13 10:23:41;;;;;;;0.10;0.10;;;19.80;99.90;;;;;;5070287;28;20478;-86
2023/07/13 10:26:14;;;;;;;0.10;0.10;;;20.70;99.90;;;;;;5070013;28;20442;-86
2023/07/13 10:28:45;;;;;;;0.10;0.10;;;21.20;99.90;;;;;;5072603;28;20569;-87
2023/07/13 10:31:13;;;;;;;0.10;0.10;;;21.60;99.90;;;;;;5084579;28;20446;-86
2023/07/13 10:33:38;;;;;;;0.10;0.10;;;21.60;99.90;;;;;;5085901;28;20439;-86
2023/07/13 10:36:16;;;;;;;0.10;0.10;;;22.10;99.90;;;;;;5082490;28;20473;-87
2023/07/13 10:38:44;;;;;;;0.10;0.00;;;22.20;99.90;;;;;;5093202;28;20214;-87
2023/07/13 10:41:15;;;;;;;0.10;0.00;;;22.10;99.90;;;;;;5074909;28;20462;-89
2023/07/13 10:43:51;;;;;;;0.10;0.00;;;22.30;99.90;;;;;;5089379;28;20434;-87
2023/07/13 10:46:20;;;;;;;0.10;0.00;;;22.50;99.90;;;;;;5083916;28;20445;-88
2023/07/13 10:48:50;;;;;;;0.10;0.00;;;22.90;99.90;;;;;;5084513;28;20474;-87
2023/07/13 10:51:20;;;;;;;0.10;0.00;;;22.90;99.90;;;;;;5087724;28;21025;-88
2023/07/13 10:53:46;;;;;;;0.10;0.00;;;23.20;99.90;;;;;;5089753;28;20485;-89
2023/07/13 10:56:27;;;;;;;0.10;0.00;;;23.00;99.90;;;;;;5089781;28;20466;-88
2023/07/13 10:59:15;;;;;;;0.10;0.00;;;23.40;99.90;;;;;;5063471;28;20230;-90
2023/07/13 11:02:01;;;;;;;0.10;0.00;;;23.60;99.90;;;;;;5089371;28;20492;-89
2023/07/13 11:04:38;;;;;;;0.10;0.00;;;24.10;99.90;;;;;;5070138;28;20435;-91
2023/07/13 11:07:19;;;;;;;0.10;0.00;;;24.10;99.90;;;;;;5084737;28;20458;-91
2023/07/13 11:09:53;;;;;;;0.10;0.00;;;24.20;99.90;;;;;;5088282;28;20439;-90
2023/07/13 11:12:47;;;;;;;0.10;0.00;;;24.10;99.90;;;;;;5085400;28;20450;-90
2023/07/13 11:15:13;;;;;;;0.10;0.10;;;24.10;99.90;;;;;;5090238;28;20450;-90
2023/07/13 11:18:00;;;;;;;0.10;0.00;;;24.60;99.90;;;;;;5090663;28;20468;-94
2023/07/13 11:20:39;;;;;;;0.10;0.00;;;24.80;99.90;;;;;;5089477;28;20488;-95
2023/07/13 11:23:13;;;;;;;0.10;0.00;;;25.20;99.90;;;;;;5084325;28;20447;-93
2023/07/13 11:25:39;;;;;;;0.10;0.00;;;25.00;99.90;;;;;;5082955;28;20438;-91
2023/07/13 11:28:11;;;;;;;0.10;0.00;;;24.70;99.90;;;;;;5086434;28;20444;-96
2023/07/13 11:30:40;;;;;;;0.10;0.00;;;24.80;99.90;;;;;;5076913;28;20806;-94
2023/07/13 11:33:22;;;;;;;0.10;0.00;;;24.40;99.90;;;;;;5076546;28;20413;-93
2023/07/13 11:35:59;;;;;;;0.10;0.00;;;25.00;99.90;;;;;;5076949;28;20915;-92
2023/07/13 11:38:42;;;;;;;0.10;0.00;;;24.30;99.90;;;;;;5084974;28;21432;-93
2023/07/13 11:41:22;;;;;;;0.10;0.00;;;24.80;99.90;;;;;;5081460;28;20435;-94
2023/07/13 11:43:55;;;;;;;0.10;0.00;;;25.10;99.90;;;;;;5093699;28;20412;-94
2023/07/13 11:46:26;;;;;;;0.10;0.00;;;23.90;99.90;;;;;;5095111;28;20435;-93
2023/07/13 11:48:53;;;;;;;0.10;0.00;;;24.80;99.90;;;;;;5093710;28;20435;-93
2023/07/13 11:51:33;;;;;;;0.10;0.00;;;26.10;99.90;;;;;;5091206;28;20793;-94
2023/07/13 11:54:04;;;;;;;0.10;0.00;;;26.00;99.90;;;;;;5090609;28;20471;-95
2023/07/13 11:56:32;;;;;;;0.10;0.00;;;24.50;99.90;;;;;;5077580;28;20471;-92
2023/07/13 11:59:03;;;;;;;0.10;0.00;;;24.50;99.90;;;;;;5080307;28;20439;-93
2023/07/13 12:01:32;;;;;;;0.10;0.00;;;24.40;99.90;;;;;;5092140;28;20518;-93
2023/07/13 12:04:00;;;;;;;0.10;0.00;;;24.40;99.90;;;;;;5092638;28;20577;-93
2023/07/13 12:06:29;;;;;;;0.10;0.00;;;23.90;99.90;;;;;;5094513;28;20443;-96
2023/07/13 12:09:03;;;;;;;0.10;0.00;;;24.70;99.90;;;;;;5084958;28;20457;-93
2023/07/13 12:11:30;;;;;;;0.10;0.00;;;24.80;99.90;;;;;;5069231;28;20651;-92
2023/07/13 12:13:56;;;;;;;0.10;0.00;;;24.30;99.90;;;;;;5084166;28;20446;-93
2023/07/13 12:16:32;;;;;;;0.10;0.00;;;23.70;99.90;;;;;;5074621;28;20478;-93
2023/07/13 12:19:00;;;;;;;0.10;0.00;;;23.40;99.90;;;;;;5091905;28;20185;-96
2023/07/13 12:21:41;;;;;;;0.10;0.00;;;22.90;99.90;;;;;;5080864;28;20435;-95
2023/07/13 12:24:15;;;;;;;0.10;0.00;;;22.70;99.90;;;;;;5095552;28;20977;-96
2023/07/13 12:26:41;;;;;;;0.10;0.00;;;22.60;99.90;;;;;;5085161;28;20425;-96
2023/07/13 12:29:07;;;;;;;0.10;0.00;;;22.30;99.90;;;;;;5077440;28;20423;-95
2023/07/13 12:31:37;;;;;;;0.10;0.00;;;22.10;99.90;;;;;;5079897;28;20181;-94
2023/07/13 12:34:08;;;;;;;0.10;0.00;;;21.90;99.90;;;;;;5090937;28;20437;-95
2023/07/13 12:36:36;;;;;;;0.10;0.00;;;22.50;99.90;;;;;;5067216;28;20468;-96
2023/07/13 12:39:14;;;;;;;0.10;0.00;;;22.80;99.90;;;;;;5090683;28;20443;-96
2023/07/13 12:41:40;;;;;;;0.10;0.00;;;22.70;99.90;;;;;;5078747;28;20461;-96
2023/07/13 12:44:12;;;;;;;0.10;0.00;;;22.90;99.90;;;;;;5095573;28;20507;-95
2023/07/13 12:46:37;;;;;;;0.10;0.00;;;23.20;99.90;;;;;;5098908;28;20673;-96
2023/07/13 12:49:06;;;;;;;0.10;0.00;;;24.10;99.90;;;;;;5109234;28;20430;-96
2023/07/13 12:51:32;;;;;;;0.10;0.00;;;23.70;99.90;;;;;;5082244;28;20185;-95
2023/07/13 12:54:12;;;;;;;0.10;0.00;;;23.40;99.90;;;;;;5096591;28;20467;-96
2023/07/13 12:56:37;;;;;;;0.10;0.00;;;23.90;99.90;;;;;;5102353;28;20219;-95
2023/07/13 12:59:06;;;;;;;0.10;0.00;;;23.90;99.90;;;;;;5096110;28;20451;-96
2023/07/13 13:01:34;;;;;;;0.10;0.00;;;23.30;99.90;;;;;;5070798;28;20443;-93
2023/07/13 13:04:06;;;;;;;0.10;0.00;;;22.70;99.90;;;;;;5084667;28;20503;-94
2023/07/13 13:06:32;;;;;;;0.10;0.00;;;22.30;99.90;;;;;;5098115;28;20464;-96
2023/07/13 13:09:03;;;;;;;0.10;0.00;;;22.10;99.90;;;;;;5108121;28;20444;-95
2023/07/13 13:11:31;;;;;;;0.10;0.00;;;21.80;99.90;;;;;;5074675;28;20911;-96
2023/07/13 13:13:57;;;;;;;0.10;0.00;;;21.70;99.90;;;;;;5087443;28;20521;-94
2023/07/13 13:16:31;;;;;;;0.10;0.00;;;21.50;99.90;;;;;;5079945;28;20539;-96
2023/07/13 13:18:59;;;;;;;0.10;0.00;;;21.80;99.90;;;;;;5085419;28;20194;-96
2023/07/13 13:21:26;;;;;;;0.10;0.00;;;21.50;99.90;;;;;;5070968;28;20430;-92
2023/07/13 13:23:51;;;;;;;0.10;0.00;;;21.70;99.90;;;;;;5095351;28;20435;-92